Time;durP1;ratioP1;P1;durP2;ratioP2;P2;SDS_P1;SDS_P2;PMS_P1;PMS_P2;Temp;Humidity;BMP_temperature;BMP_pressure;BME280_temperature;BME280_humidity;BME280_pressure;Samples;Min_cycle;Max_cycle;Signal;HPM_P1;HPM_P2
2021/12/02 00:01:35;;;;;;;;;3.00;3.00;;;;;6.57;100.00;99991.91;4862145;29;44785;-84
2021/12/02 00:04:01;;;;;;;;;2.00;2.00;;;;;6.50;100.00;99985.34;4862338;29;44759;-83
2021/12/02 00:06:27;;;;;;;;;7.00;4.00;;;;;6.49;100.00;99979.22;4862237;29;45505;-83
2021/12/02 00:08:52;;;;;;;;;4.00;4.00;;;;;6.51;100.00;99985.22;4846101;29;45402;-83
2021/12/02 00:11:19;;;;;;;;;5.75;4.00;;;;;6.46;100.00;99983.81;4870748;29;45381;-85
2021/12/02 00:21:21;;;;;;;;;4.75;3.75;;;;;6.51;100.00;99990.50;4864945;29;45430;-84
2021/12/02 00:23:58;;;;;;;;;5.00;4.00;;;;;6.51;100.00;99997.56;4867088;29;45357;-84
2021/12/02 00:26:24;;;;;;;;;5.50;3.25;;;;;6.47;100.00;99986.34;4870449;29;44822;-83
2021/12/02 00:28:56;;;;;;;;;4.50;4.50;;;;;6.44;100.00;99991.84;4900321;28;45345;-83
2021/12/02 00:31:24;;;;;;;;;3.75;3.75;;;;;6.48;100.00;99998.63;4906729;28;45057;-84
2021/12/02 00:33:52;;;;;;;;;1.25;1.00;;;;;6.44;100.00;100002.41;4922442;28;44833;-84
2021/12/02 00:36:19;;;;;;;;;6.00;4.50;;;;;6.39;100.00;100005.31;4921867;28;44796;-83
2021/12/02 00:38:46;;;;;;;;;3.75;3.75;;;;;6.39;100.00;99999.19;4922236;28;45139;-84
2021/12/02 00:41:14;;;;;;;;;2.60;2.60;;;;;6.47;100.00;100014.53;4905821;28;44775;-84
2021/12/02 00:43:41;;;;;;;;;5.00;3.75;;;;;6.42;100.00;100020.94;4923115;28;45386;-84
2021/12/02 00:46:10;;;;;;;;;2.00;2.00;;;;;6.37;100.00;100023.00;4922308;28;44802;-84
2021/12/02 00:48:37;;;;;;;;;4.75;4.75;;;;;6.42;100.00;100015.66;4904390;28;45360;-84
2021/12/02 00:51:04;;;;;;;;;4.75;3.75;;;;;6.43;100.00;100025.28;4921310;28;45476;-84
2021/12/02 00:53:32;;;;;;;;;3.25;2.00;;;;;6.41;100.00;100024.53;4920058;28;45263;-84
2021/12/02 00:56:02;;;;;;;;;3.00;2.75;;;;;6.35;100.00;100029.34;4920468;28;44757;-83
2021/12/02 00:58:30;;;;;;;;;8.50;3.75;;;;;6.27;100.00;100032.44;4902389;28;45262;-83
2021/12/02 01:00:57;;;;;;;;;4.00;4.00;;;;;6.20;100.00;100040.81;4920680;28;45381;-84
2021/12/02 01:03:25;;;;;;;;;4.00;4.00;;;;;6.17;100.00;100047.09;4921915;28;44788;-84
2021/12/02 01:05:52;;;;;;;;;4.25;3.00;;;;;6.18;100.00;100044.38;4923365;28;45179;-84
2021/12/02 01:08:19;;;;;;;;;6.75;6.75;;;;;6.12;100.00;100051.81;4923965;28;45398;-83
2021/12/02 01:10:44;;;;;;;;;5.75;5.00;;;;;6.17;100.00;100055.03;4924067;28;44789;-83
2021/12/02 01:13:10;;;;;;;;;5.00;3.00;;;;;6.15;100.00;100055.13;4924282;28;44697;-85
2021/12/02 01:15:37;;;;;;;;;6.25;5.00;;;;;6.14;100.00;100045.53;4911404;28;44855;-84
2021/12/02 01:18:03;;;;;;;;;4.50;4.50;;;;;6.16;100.00;100053.31;4907384;29;45176;-84
2021/12/02 01:20:31;;;;;;;;;3.00;3.00;;;;;6.21;100.00;100058.34;4911155;29;44834;-83
2021/12/02 01:22:59;;;;;;;;;10.00;6.00;;;;;6.20;100.00;100062.75;4906808;29;45346;-84
2021/12/02 01:25:28;;;;;;;;;9.75;8.25;;;;;6.16;100.00;100063.88;4904716;29;45355;-83
2021/12/02 01:27:56;;;;;;;;;8.25;7.00;;;;;6.12;100.00;100059.72;4906167;29;45992;-84
2021/12/02 01:30:22;;;;;;;;;8.75;8.75;;;;;6.14;100.00;100068.38;4906766;29;45352;-83
2021/12/02 01:32:48;;;;;;;;;5.25;4.25;;;;;6.18;100.00;100061.97;4904783;29;45512;-85
2021/12/02 01:35:18;;;;;;;;;9.50;9.50;;;;;6.14;100.00;100066.63;4903952;29;45343;-83
2021/12/02 01:37:45;;;;;;;;;9.25;6.75;;;;;6.22;100.00;100065.28;4904033;29;45540;-84
2021/12/02 01:40:11;;;;;;;;;6.00;6.00;;;;;6.24;100.00;100073.94;4914233;28;45180;-83
2021/12/02 01:42:39;;;;;;;;;11.75;7.75;;;;;6.18;100.00;100067.25;4922304;28;45398;-83
2021/12/02 01:45:05;;;;;;;;;8.75;7.25;;;;;6.15;100.00;100067.47;4922222;28;45556;-83
2021/12/02 01:47:32;;;;;;;;;9.50;6.75;;;;;6.24;100.00;100074.81;4904230;28;44955;-84
2021/12/02 01:50:03;;;;;;;;;10.75;9.00;;;;;6.25;100.00;100078.31;4901725;29;45457;-82
2021/12/02 01:52:31;;;;;;;;;4.00;4.00;;;;;6.24;100.00;100090.66;4903515;29;44979;-83
2021/12/02 01:55:17;;;;;;;;;10.75;10.00;;;;;6.21;100.00;100096.09;4904198;29;45501;-83
2021/12/02 01:57:59;;;;;;;;;7.00;7.00;;;;;6.18;100.00;100107.66;4904971;29;45739;-88
2021/12/02 02:00:43;;;;;;;;;11.00;7.25;;;;;6.20;100.00;100093.56;4906021;29;45230;-83
2021/12/02 02:03:10;;;;;;;;;8.75;8.75;;;;;6.25;100.00;100094.97;4890025;29;45319;-84
2021/12/02 02:05:38;;;;;;;;;11.75;11.00;;;;;6.26;100.00;100109.84;4904378;29;44777;-83
2021/12/02 02:08:09;;;;;;;;;12.25;9.75;;;;;6.25;100.00;100117.88;4903992;29;45167;-83
2021/12/02 02:10:37;;;;;;;;;5.25;5.25;;;;;6.27;100.00;100115.97;4918514;28;44868;-84
2021/12/02 02:13:06;;;;;;;;;14.50;11.50;;;;;6.24;100.00;100121.44;4927615;28;44774;-84
2021/12/02 02:15:33;;;;;;;;;10.25;7.25;;;;;6.17;100.00;100113.03;4924134;28;44840;-83
2021/12/02 02:18:08;;;;;;;;;16.25;11.00;;;;;6.25;100.00;100120.50;4923042;28;45520;-83
2021/12/02 02:20:38;;;;;;;;;11.25;10.00;;;;;6.27;100.00;100116.81;4929635;28;44744;-84
2021/12/02 02:23:06;;;;;;;;;9.50;6.00;;;;;6.30;100.00;100129.00;4924099;28;44850;-84
2021/12/02 02:25:32;;;;;;;;;11.50;10.00;;;;;6.30;100.00;100124.56;4905748;28;45199;-83
2021/12/02 02:27:58;;;;;;;;;6.00;6.00;;;;;6.29;100.00;100135.22;4923805;28;46116;-83
2021/12/02 02:30:23;;;;;;;;;13.50;10.00;;;;;6.30;100.00;100136.91;4907558;28;44692;-83
2021/12/02 02:32:49;;;;;;;;;12.00;9.50;;;;;6.37;100.00;100141.72;4925249;28;44761;-83
2021/12/02 02:35:15;;;;;;;;;8.00;7.25;;;;;6.38;100.00;100135.53;4925080;28;44753;-84
2021/12/02 02:37:41;;;;;;;;;12.25;6.50;;;;;6.42;100.00;100136.16;4924358;28;45307;-83
2021/12/02 02:40:08;;;;;;;;;7.75;7.00;;;;;6.40;100.00;100131.00;4921160;28;44784;-83
2021/12/02 02:42:35;;;;;;;;;12.25;7.50;;;;;6.44;100.00;100129.88;4921581;28;44858;-83
2021/12/02 02:45:01;;;;;;;;;3.00;3.00;;;;;6.39;100.00;100145.13;4921560;28;45576;-83
2021/12/02 02:47:28;;;;;;;;;6.00;6.00;;;;;6.41;100.00;100139.75;4921153;28;45507;-83
2021/12/02 02:49:54;;;;;;;;;4.60;4.60;;;;;6.41;100.00;100150.31;4921077;28;44673;-83
2021/12/02 02:52:20;;;;;;;;;8.25;4.00;;;;;6.37;100.00;100157.53;4921224;28;45439;-83
2021/12/02 02:54:47;;;;;;;;;5.75;4.75;;;;;6.39;100.00;100160.13;4921384;28;44971;-84
2021/12/02 02:57:14;;;;;;;;;5.50;5.50;;;;;6.36;100.00;100153.22;4921550;28;45081;-83
2021/12/02 03:00:03;;;;;;;;;9.40;5.40;;;;;6.36;100.00;100153.22;4920387;28;45257;-84
2021/12/02 03:02:39;;;;;;;;;4.60;4.00;;;;;6.39;100.00;100153.03;4927945;28;45378;-83
2021/12/02 03:07:42;;;;;;;;;3.50;3.50;;;;;6.39;100.00;100166.25;4921373;28;45136;-83
2021/12/02 03:10:27;;;;;;;;;6.00;6.00;;;;;6.39;100.00;100145.13;4921139;28;45380;-83
2021/12/02 03:12:59;;;;;;;;;3.75;3.75;;;;;6.38;100.00;100150.47;4921551;28;44814;-83
2021/12/02 03:18:10;;;;;;;;;5.50;5.00;;;;;6.26;100.00;100174.94;4920804;28;45453;-84
2021/12/02 03:20:35;;;;;;;;;6.75;4.75;;;;;6.34;100.00;100167.44;4920940;28;45295;-84
2021/12/02 03:23:01;;;;;;;;;3.75;3.75;;;;;6.33;100.00;100174.50;4921744;28;44804;-84
2021/12/02 03:25:26;;;;;;;;;4.25;4.25;;;;;6.35;100.00;100167.34;4921331;28;44923;-84
2021/12/02 03:27:52;;;;;;;;;4.50;3.25;;;;;6.28;100.00;100166.00;4920552;28;45361;-83
2021/12/02 03:30:17;;;;;;;;;3.50;2.50;;;;;6.21;100.00;100172.59;4922506;28;44925;-87
2021/12/02 03:32:43;;;;;;;;;4.00;4.00;;;;;6.15;100.00;100183.50;4928890;28;45249;-87
2021/12/02 03:35:09;;;;;;;;;2.00;2.00;;;;;6.18;100.00;100172.75;4926972;28;44837;-83
2021/12/02 03:37:34;;;;;;;;;3.00;3.00;;;;;6.17;100.00;100179.81;4923607;28;45583;-83
2021/12/02 03:40:00;;;;;;;;;1.75;1.75;;;;;6.19;100.00;100187.66;4920817;28;44790;-84
2021/12/02 03:42:25;;;;;;;;;3.00;2.25;;;;;6.23;100.00;100175.13;4920717;28;45510;-84
2021/12/02 03:44:51;;;;;;;;;2.75;2.75;;;;;6.17;100.00;100193.00;4919960;28;44848;-84
2021/12/02 03:47:16;;;;;;;;;3.00;1.00;;;;;6.11;100.00;100180.16;4920111;28;45212;-84
2021/12/02 03:49:42;;;;;;;;;2.75;1.00;;;;;6.08;100.00;100169.78;4921601;28;44731;-87
2021/12/02 03:52:08;;;;;;;;;1.75;0.50;;;;;6.13;100.00;100188.00;4906635;28;45026;-88
2021/12/02 03:54:33;;;;;;;;;2.25;2.25;;;;;6.08;100.00;100190.03;4930303;28;44909;-88
2021/12/02 03:56:59;;;;;;;;;5.75;2.00;;;;;6.10;100.00;100201.38;4914597;28;45383;-88
2021/12/02 03:59:25;;;;;;;;;3.40;1.00;;;;;6.11;100.00;100206.53;4926108;28;45221;-87
2021/12/02 04:01:50;;;;;;;;;6.00;3.00;;;;;6.02;100.00;100198.31;4926023;28;45094;-87
2021/12/02 04:04:16;;;;;;;;;0.25;0.25;;;;;6.02;100.00;100198.31;4908482;28;44918;-89
2021/12/02 04:06:41;;;;;;;;;3.25;1.00;;;;;5.97;100.00;100198.56;4924936;28;45005;-89
2021/12/02 04:09:15;;;;;;;;;2.00;1.00;;;;;6.03;100.00;100206.13;4923766;28;44761;-89
2021/12/02 04:11:54;;;;;;;;;2.00;2.00;;;;;6.03;100.00;100215.81;4923260;28;44660;-88
2021/12/02 04:14:25;;;;;;;;;0.25;0.25;;;;;5.98;100.00;100217.88;4922856;28;44882;-85
2021/12/02 04:16:58;;;;;;;;;2.00;2.00;;;;;5.88;100.00;100202.53;4908363;29;46623;-83
2021/12/02 04:19:24;;;;;;;;;1.40;1.40;;;;;5.80;100.00;100210.03;4909765;29;45302;-84
2021/12/02 04:21:52;;;;;;;;;2.25;1.50;;;;;5.79;100.00;100207.47;4905390;29;45342;-85
2021/12/02 04:24:17;;;;;;;;;0.00;0.00;;;;;5.69;100.00;100196.59;4901820;29;44895;-84
2021/12/02 04:26:43;;;;;;;;;1.50;1.50;;;;;5.74;100.00;100205.09;4901841;29;45482;-84
2021/12/02 04:29:11;;;;;;;;;2.50;1.00;;;;;5.69;100.00;100207.13;4903228;29;44703;-84
2021/12/02 04:31:37;;;;;;;;;4.00;1.00;;;;;5.71;100.00;100209.69;4904258;29;44755;-84
2021/12/02 04:34:03;;;;;;;;;3.00;2.00;;;;;5.70;100.00;100210.59;4902437;29;45418;-84
2021/12/02 04:36:28;;;;;;;;;1.00;1.00;;;;;5.66;100.00;100223.97;4904273;29;45160;-84
2021/12/02 04:38:54;;;;;;;;;1.00;1.00;;;;;5.58;100.00;100254.31;4904912;28;44738;-84
2021/12/02 04:41:19;;;;;;;;;5.00;2.00;;;;;5.51;100.00;100229.22;4910893;28;44791;-85
2021/12/02 04:43:44;;;;;;;;;2.25;1.00;;;;;5.48;100.00;100259.22;4927933;28;45510;-84
2021/12/02 04:46:10;;;;;;;;;0.00;0.00;;;;;5.40;100.00;100264.03;4927136;28;45323;-85
2021/12/02 04:48:35;;;;;;;;;1.00;1.00;;;;;5.38;100.00;100242.19;5178049;23;46138;-90
2021/12/02 04:51:01;;;;;;;;;3.25;1.50;;;;;5.25;100.00;100243.78;4934308;28;45263;-90
2021/12/02 04:53:26;;;;;;;;;1.75;0.75;;;;;5.22;100.00;100250.06;4934059;28;44923;-90
2021/12/02 04:55:52;;;;;;;;;2.00;2.00;;;;;5.12;100.00;100273.38;4946430;28;45045;-91
2021/12/02 04:58:17;;;;;;;;;3.50;2.75;;;;;5.08;100.00;100278.91;4945092;28;44789;-84
2021/12/02 05:00:43;;;;;;;;;3.25;0.50;;;;;4.96;100.00;100284.78;4942421;28;45070;-83
2021/12/02 05:03:08;;;;;;;;;3.25;2.50;;;;;4.93;100.00;100264.72;4942052;28;45411;-83
2021/12/02 05:05:34;;;;;;;;;2.25;1.25;;;;;4.92;100.00;100286.72;4942165;28;45421;-84
2021/12/02 05:08:00;;;;;;;;;5.00;3.75;;;;;4.85;100.00;100293.22;4942083;28;45339;-83
2021/12/02 05:10:26;;;;;;;;;3.75;2.25;;;;;4.87;100.00;100273.78;4922830;28;44792;-84
2021/12/02 05:12:55;;;;;;;;;2.00;0.75;;;;;4.88;100.00;100301.81;4923038;28;45489;-84
2021/12/02 05:15:21;;;;;;;;;5.25;3.00;;;;;4.84;100.00;100281.00;4923019;28;45222;-85
2021/12/02 05:17:47;;;;;;;;;3.50;1.75;;;;;4.84;100.00;100295.00;4924147;28;45316;-85
2021/12/02 05:20:12;;;;;;;;;5.00;3.00;;;;;4.81;100.00;100297.78;4926012;28;45300;-84
2021/12/02 05:22:40;;;;;;;;;4.25;2.00;;;;;4.84;100.00;100296.78;4925791;28;44986;-84
2021/12/02 05:25:06;;;;;;;;;1.00;1.00;;;;;4.83;100.00;100290.66;4911100;28;45104;-85
2021/12/02 05:27:32;;;;;;;;;2.75;1.00;;;;;4.75;100.00;100294.63;4926236;28;44696;-84
2021/12/02 05:29:58;;;;;;;;;5.00;2.75;;;;;4.74;100.00;100292.91;4949858;28;44580;-88
2021/12/02 05:32:23;;;;;;;;;3.00;1.50;;;;;4.73;100.00;100296.47;4953862;28;45168;-83
2021/12/02 05:34:49;;;;;;;;;4.50;3.00;;;;;4.73;100.00;100299.09;4952094;28;45335;-83
2021/12/02 05:37:16;;;;;;;;;2.00;1.00;;;;;4.77;100.00;100298.88;4952506;28;44677;-83
2021/12/02 05:39:41;;;;;;;;;6.00;2.75;;;;;4.78;100.00;100303.19;4935235;28;44782;-85
2021/12/02 05:42:07;;;;;;;;;2.50;2.50;;;;;4.72;100.00;100300.03;4953219;28;44889;-83
2021/12/02 05:44:32;;;;;;;;;2.00;2.00;;;;;4.67;100.00;100313.41;4950640;28;45040;-84
2021/12/02 05:46:58;;;;;;;;;2.00;2.00;;;;;4.61;100.00;100308.47;4945284;28;45423;-82
2021/12/02 05:49:24;;;;;;;;;0.25;0.25;;;;;4.63;100.00;100296.06;4941894;28;45223;-83
2021/12/02 05:51:49;;;;;;;;;3.50;3.50;;;;;4.58;100.00;100298.91;4941023;28;44937;-83
2021/12/02 05:54:14;;;;;;;;;4.00;3.00;;;;;4.56;100.00;100299.94;4943192;28;45407;-84
2021/12/02 05:56:40;;;;;;;;;0.25;0.25;;;;;4.54;100.00;100300.00;4941785;28;44744;-84
2021/12/02 05:59:06;;;;;;;;;4.00;4.00;;;;;4.50;100.00;100309.00;4943183;28;44808;-83
2021/12/02 06:01:32;;;;;;;;;4.00;3.00;;;;;4.52;100.00;100308.91;4942397;28;44742;-84
2021/12/02 06:03:57;;;;;;;;;10.00;4.00;;;;;4.53;100.00;100310.59;4943058;28;45460;-83
2021/12/02 06:06:25;;;;;;;;;2.50;2.25;;;;;4.46;100.00;100299.53;4945171;28;44765;-84
2021/12/02 06:08:51;;;;;;;;;1.50;1.50;;;;;4.41;100.00;100308.59;4943071;28;44715;-84
2021/12/02 06:11:16;;;;;;;;;4.00;2.50;;;;;4.35;100.00;100302.69;4942908;28;44774;-84
2021/12/02 06:13:42;;;;;;;;;3.50;3.00;;;;;4.34;100.00;100324.63;4943654;28;45399;-84
2021/12/02 06:16:08;;;;;;;;;3.50;3.50;;;;;4.29;100.00;100324.00;4942663;28;44774;-84
2021/12/02 06:18:34;;;;;;;;;9.00;5.00;;;;;4.27;100.00;100323.25;4926172;28;44840;-84
2021/12/02 06:20:59;;;;;;;;;3.75;3.75;;;;;4.25;100.00;100324.22;4927372;28;44912;-83
2021/12/02 06:23:25;;;;;;;;;2.25;1.25;;;;;4.20;100.00;100324.44;4928411;28;46840;-84
2021/12/02 06:25:50;;;;;;;;;5.00;4.00;;;;;4.18;100.00;100343.84;4926604;28;44838;-84
2021/12/02 06:28:17;;;;;;;;;7.00;4.00;;;;;4.17;100.00;100342.16;4943070;28;44874;-84
2021/12/02 06:30:44;;;;;;;;;1.00;1.00;;;;;4.13;100.00;100359.84;4943404;28;44788;-83
2021/12/02 06:33:10;;;;;;;;;5.75;4.00;;;;;4.14;100.00;100337.88;4943920;28;45317;-84
2021/12/02 06:35:36;;;;;;;;;4.25;2.00;;;;;4.11;100.00;100349.41;4926712;28;44879;-83
2021/12/02 06:38:02;;;;;;;;;2.00;2.00;;;;;4.09;100.00;100322.31;4946486;28;44776;-88
2021/12/02 06:40:28;;;;;;;;;6.25;4.00;;;;;4.09;100.00;100329.34;4947281;28;44858;-86
2021/12/02 06:42:55;;;;;;;;;4.50;4.50;;;;;4.03;100.00;100312.09;4948599;28;45366;-87
2021/12/02 06:45:20;;;;;;;;;4.00;3.50;;;;;4.02;100.00;100326.16;4928694;28;44771;-84
2021/12/02 06:47:47;;;;;;;;;4.00;4.00;;;;;3.97;100.00;100332.56;4913537;28;44760;-86
2021/12/02 06:50:17;;;;;;;;;3.75;3.75;;;;;3.95;100.00;100334.41;4927595;28;44767;-83
2021/12/02 06:52:43;;;;;;;;;7.25;4.00;;;;;3.98;100.00;100336.91;4926892;28;45279;-84
2021/12/02 06:55:10;;;;;;;;;5.75;5.75;;;;;3.96;100.00;100338.72;4927719;28;45316;-84
2021/12/02 06:57:36;;;;;;;;;5.75;3.00;;;;;3.94;100.00;100351.94;4932910;28;44721;-84
2021/12/02 07:00:07;;;;;;;;;6.00;5.00;;;;;3.95;100.00;100358.06;4925066;28;44948;-85
2021/12/02 07:02:33;;;;;;;;;4.75;2.00;;;;;3.91;100.00;100377.50;4925823;28;45025;-87
2021/12/02 07:04:58;;;;;;;;;4.00;4.00;;;;;3.98;100.00;100376.31;4906819;28;45277;-83
2021/12/02 07:07:26;;;;;;;;;3.50;3.00;;;;;4.01;100.00;100386.66;4927030;28;44839;-84
2021/12/02 07:09:51;;;;;;;;;3.50;2.25;;;;;4.02;100.00;100391.88;4932656;28;44881;-85
2021/12/02 07:12:19;;;;;;;;;3.75;3.25;;;;;4.07;100.00;100404.81;4944388;28;44989;-83
2021/12/02 07:14:48;;;;;;;;;7.25;2.00;;;;;4.11;100.00;100398.50;4938994;28;45297;-84
2021/12/02 07:17:13;;;;;;;;;9.00;5.25;;;;;4.09;100.00;100423.97;4924391;28;44772;-83
2021/12/02 07:19:40;;;;;;;;;6.75;2.75;;;;;4.15;100.00;100407.06;4927681;28;45299;-88
2021/12/02 07:22:06;;;;;;;;;7.00;4.25;;;;;4.15;100.00;100396.56;4912348;28;46589;-88
2021/12/02 07:24:31;;;;;;;;;8.75;3.25;;;;;4.17;100.00;100403.47;4926060;28;44746;-88
2021/12/02 07:26:57;;;;;;;;;4.25;4.00;;;;;4.11;100.00;100417.75;4915958;28;44704;-88
2021/12/02 07:29:23;;;;;;;;;9.25;2.75;;;;;4.05;100.00;100406.63;4916438;28;44832;-89
2021/12/02 07:31:50;;;;;;;;;5.25;3.00;;;;;4.03;100.00;100406.72;4931340;28;45340;-88
2021/12/02 07:34:17;;;;;;;;;8.25;4.00;;;;;4.01;100.00;100411.22;4928431;28;45164;-88
2021/12/02 07:36:43;;;;;;;;;3.50;3.50;;;;;4.03;100.00;100406.72;4927332;28;44812;-88
2021/12/02 07:39:09;;;;;;;;;4.00;3.00;;;;;4.01;100.00;100407.69;4925467;28;44924;-87
2021/12/02 07:41:38;;;;;;;;;5.25;3.50;;;;;3.99;100.00;100428.78;4910505;28;45092;-88
2021/12/02 07:44:05;;;;;;;;;2.75;1.00;;;;;3.99;100.00;100438.47;4909987;28;44705;-88
2021/12/02 07:46:31;;;;;;;;;9.75;4.00;;;;;3.99;100.00;100423.53;4929654;28;44617;-88
2021/12/02 07:48:57;;;;;;;;;5.00;3.00;;;;;3.99;100.00;100399.03;4930722;28;44833;-87
2021/12/02 07:51:30;;;;;;;;;6.00;3.00;;;;;4.01;100.00;100416.47;4910103;28;46733;-87
2021/12/02 07:53:58;;;;;;;;;5.00;4.50;;;;;3.98;100.00;100405.22;4926062;28;45203;-86
2021/12/02 07:56:24;;;;;;;;;4.00;3.75;;;;;3.94;100.00;100416.78;4924972;28;44724;-86
2021/12/02 07:58:49;;;;;;;;;1.75;1.75;;;;;4.02;100.00;100443.59;4923791;28;44802;-90
2021/12/02 08:01:16;;;;;;;;;2.75;2.00;;;;;4.09;100.00;100432.72;4928524;28;45268;-90
2021/12/02 08:03:45;;;;;;;;;2.00;2.00;;;;;4.03;100.00;100417.22;4913308;28;44659;-88
2021/12/02 08:06:15;;;;;;;;;4.00;3.25;;;;;4.13;100.00;100423.78;4912590;28;44877;-87
2021/12/02 08:08:42;;;;;;;;;5.25;4.00;;;;;4.14;100.00;100437.75;4913158;28;44964;-88
2021/12/02 08:11:08;;;;;;;;;5.50;3.50;;;;;4.26;100.00;100441.63;4930552;28;45544;-88
2021/12/02 08:13:34;;;;;;;;;4.50;4.50;;;;;4.37;100.00;100445.47;4913678;28;44605;-88
2021/12/02 08:16:01;;;;;;;;;6.75;3.00;;;;;4.45;100.00;100446.88;4933856;28;44608;-88
2021/12/02 08:18:27;;;;;;;;;6.50;4.00;;;;;4.50;100.00;100464.16;4936149;28;44842;-88
2021/12/02 08:20:54;;;;;;;;;3.00;2.00;;;;;4.46;100.00;100457.34;4934073;28;45134;-85
2021/12/02 08:23:19;;;;;;;;;4.75;3.25;;;;;4.51;100.00;100447.47;4924527;28;45252;-85
2021/12/02 08:25:45;;;;;;;;;8.75;3.25;;;;;4.60;100.00;100454.94;4925827;28;44684;-83
2021/12/02 08:28:10;;;;;;;;;5.00;4.00;;;;;4.63;100.00;100469.69;4924671;28;44784;-82
2021/12/02 08:30:37;;;;;;;;;2.00;2.00;;;;;4.58;100.00;100454.13;4924338;28;45545;-84
2021/12/02 08:33:06;;;;;;;;;6.50;2.00;;;;;4.63;100.00;100462.66;4924226;28;45159;-83
2021/12/02 08:35:32;;;;;;;;;3.00;3.00;;;;;4.62;100.00;100463.59;4925476;28;44891;-83
2021/12/02 08:38:02;;;;;;;;;5.00;1.00;;;;;4.49;100.00;100474.75;4926001;28;44840;-86
2021/12/02 08:40:36;;;;;;;;;7.50;3.75;;;;;4.41;100.00;100480.38;4930866;28;45077;-85
2021/12/02 08:43:04;;;;;;;;;6.75;3.00;;;;;4.32;100.00;100480.78;4931860;28;44750;-87
2021/12/02 08:45:30;;;;;;;;;6.00;2.50;;;;;4.29;100.00;100475.66;4934019;28;44704;-86
2021/12/02 08:47:57;;;;;;;;;4.75;2.00;;;;;4.29;100.00;100475.66;4941611;28;44852;-86
2021/12/02 08:50:23;;;;;;;;;10.25;3.75;;;;;4.28;100.00;100487.94;4940347;28;45284;-86
2021/12/02 08:52:51;;;;;;;;;12.25;4.00;;;;;4.26;100.00;100491.59;4919655;28;44764;-88
2021/12/02 08:55:18;;;;;;;;;3.50;3.00;;;;;4.18;100.00;100470.03;4930239;28;44731;-89
2021/12/02 08:57:45;;;;;;;;;6.75;2.75;;;;;4.19;100.00;100477.00;4930168;28;44849;-89
2021/12/02 09:00:13;;;;;;;;;3.00;3.00;;;;;4.20;100.00;100492.69;4912586;28;45534;-89
2021/12/02 09:02:39;;;;;;;;;6.00;4.00;;;;;4.37;100.00;100505.94;4918718;28;45343;-85
2021/12/02 09:05:05;;;;;;;;;10.00;3.00;;;;;4.38;100.00;100501.53;4932884;28;44753;-86
2021/12/02 09:07:31;;;;;;;;;4.00;2.25;;;;;4.42;100.00;100528.56;4953123;28;45020;-82
2021/12/02 09:09:57;;;;;;;;;4.75;3.00;;;;;4.50;100.00;100513.31;4927999;28;45359;-86
2021/12/02 09:12:23;;;;;;;;;3.50;3.00;;;;;4.54;100.00;100506.94;4926894;28;44794;-86
2021/12/02 09:14:50;;;;;;;;;5.50;3.00;;;;;4.55;100.00;100498.16;4937228;28;44901;-85
2021/12/02 09:17:15;;;;;;;;;3.75;2.00;;;;;4.70;100.00;100520.28;4923006;28;45456;-82
2021/12/02 09:19:43;;;;;;;;;6.75;2.75;;;;;4.80;100.00;100529.44;4943424;28;45031;-85
2021/12/02 09:22:09;;;;;;;;;4.50;3.00;;;;;4.80;100.00;100521.56;4939768;28;44875;-85
2021/12/02 09:24:34;;;;;;;;;1.75;1.00;;;;;4.85;100.00;100520.41;4941909;28;44788;-83
2021/12/02 09:27:00;;;;;;;;;4.25;1.00;;;;;4.86;100.00;100531.78;4938051;28;45454;-83
2021/12/02 09:29:25;;;;;;;;;3.00;3.00;;;;;4.95;100.00;100530.50;4937282;28;45094;-83
2021/12/02 09:31:52;;;;;;;;;3.50;3.50;;;;;4.93;100.00;100520.03;4926315;28;44717;-82
2021/12/02 09:34:19;;;;;;;;;8.00;3.00;;;;;5.10;100.00;100529.78;4944150;28;44733;-83
2021/12/02 09:36:46;;;;;;;;;2.25;2.00;;;;;5.13;100.00;100530.50;4942060;28;44892;-83
2021/12/02 09:39:13;;;;;;;;;7.00;4.00;;;;;5.22;100.00;100530.97;4925997;28;45203;-82
2021/12/02 09:41:39;;;;;;;;;6.00;3.00;;;;;5.22;100.00;100552.91;4938392;28;44756;-83
2021/12/02 09:44:04;;;;;;;;;8.50;4.75;;;;;5.18;100.00;100551.34;4931986;28;45690;-84
2021/12/02 09:46:30;;;;;;;;;3.75;3.75;;;;;5.17;100.00;100544.34;4942380;28;45090;-84
2021/12/02 09:48:58;;;;;;;;;5.00;2.00;;;;;5.22;100.00;100552.03;4914550;28;46814;-83
2021/12/02 09:51:27;;;;;;;;;8.50;3.00;;;;;5.25;100.00;100555.38;4941811;28;44823;-86
2021/12/02 09:53:57;;;;;;;;;5.25;3.00;;;;;5.23;100.00;100553.75;4938980;28;45395;-85
2021/12/02 09:56:28;;;;;;;;;0.00;0.00;;;;;5.22;100.00;100534.47;4926231;28;44825;-84
2021/12/02 09:58:57;;;;;;;;;4.00;1.25;;;;;5.29;100.00;100540.28;4925833;28;45257;-84
2021/12/02 10:01:30;;;;;;;;;8.50;4.25;;;;;5.46;100.00;100558.75;4942195;28;44879;-85
2021/12/02 10:04:01;;;;;;;;;6.75;4.00;;;;;5.32;100.00;100561.22;4923110;28;44799;-83
2021/12/02 10:06:30;;;;;;;;;3.25;2.00;;;;;5.32;100.00;100567.34;4920834;28;45006;-83
2021/12/02 10:09:07;;;;;;;;;3.50;2.25;;;;;5.33;100.00;100573.44;4935061;28;45234;-84
2021/12/02 10:11:40;;;;;;;;;8.25;2.00;;;;;5.38;100.00;100576.72;4937904;28;45359;-83
2021/12/02 10:14:17;;;;;;;;;4.75;3.75;;;;;5.33;100.00;100582.22;4929214;28;45229;-84
2021/12/02 10:16:45;;;;;;;;;9.75;8.75;;;;;5.33;100.00;100578.72;4923643;28;44725;-84
2021/12/02 10:19:13;;;;;;;;;5.00;3.25;;;;;5.48;100.00;100566.59;4919658;28;45335;-83
2021/12/02 10:21:46;;;;;;;;;5.75;1.25;;;;;5.57;100.00;100553.81;4922476;28;44790;-83
2021/12/02 10:24:30;;;;;;;;;1.75;1.00;;;;;5.66;100.00;100569.19;4906545;28;44747;-83
2021/12/02 10:26:57;;;;;;;;;7.75;3.75;;;;;5.56;100.00;100577.59;4923648;28;44825;-84
2021/12/02 10:29:27;;;;;;;;;4.50;3.25;;;;;5.47;100.00;100564.88;4939940;28;45307;-84
2021/12/02 10:32:13;;;;;;;;;5.75;4.50;;;;;5.44;100.00;100563.25;4927918;28;44783;-85
2021/12/02 10:35:10;;;;;;;;;3.50;1.75;;;;;5.48;100.00;100567.44;4921660;28;44827;-84
2021/12/02 10:37:39;;;;;;;;;3.00;2.75;;;;;5.45;100.00;100564.09;4941242;28;44982;-85
2021/12/02 10:40:20;;;;;;;;;1.50;0.00;;;;;5.33;100.00;100558.50;4906788;28;46972;-82
2021/12/02 10:42:47;;;;;;;;;2.20;1.40;;;;;5.45;100.00;100551.78;4922700;28;44766;-83
2021/12/02 10:45:26;;;;;;;;;2.75;0.75;;;;;5.49;100.00;100539.31;4936500;28;44799;-84
2021/12/02 10:47:54;;;;;;;;;3.50;2.00;;;;;5.52;100.00;100571.63;4929045;28;45330;-83
2021/12/02 10:50:21;;;;;;;;;5.00;2.75;;;;;5.50;100.00;100551.56;4942396;28;45376;-84
2021/12/02 10:52:47;;;;;;;;;5.25;3.00;;;;;5.52;100.00;100540.03;4942197;28;44730;-83
2021/12/02 10:55:16;;;;;;;;;3.00;2.00;;;;;5.43;100.00;100569.44;4939367;28;45321;-83
2021/12/02 10:57:56;;;;;;;;;2.00;1.00;;;;;5.40;100.00;100556.41;4912595;28;45000;-85
2021/12/02 11:00:23;;;;;;;;;4.25;0.25;;;;;5.43;100.00;100561.53;4939246;28;45239;-84
2021/12/02 11:02:55;;;;;;;;;3.00;3.00;;;;;5.48;100.00;100538.47;4942558;28;45334;-84
2021/12/02 11:05:30;;;;;;;;;1.00;1.00;;;;;5.60;100.00;100539.63;4930269;28;45295;-83
2021/12/02 11:08:06;;;;;;;;;3.50;2.00;;;;;5.58;100.00;100542.34;4923567;28;44738;-84
2021/12/02 11:10:37;;;;;;;;;2.00;0.00;;;;;5.49;100.00;100540.16;4923284;28;45543;-85
2021/12/02 11:13:04;;;;;;;;;1.00;1.00;;;;;5.45;100.00;100530.69;4927691;28;44794;-85
2021/12/02 11:15:32;;;;;;;;;2.50;2.00;;;;;5.58;100.00;100542.34;4939465;28;44769;-85
2021/12/02 11:18:06;;;;;;;;;7.00;2.00;;;;;5.79;100.00;100521.97;4929182;28;45382;-84
2021/12/02 11:20:36;;;;;;;;;3.00;1.75;;;;;6.01;100.00;100519.13;4932076;28;45660;-83
2021/12/02 11:23:30;;;;;;;;;5.50;2.00;;;;;5.84;100.00;100524.38;4914265;28;44832;-87
2021/12/02 11:26:08;;;;;;;;;1.00;1.00;;;;;5.80;100.00;100518.41;4944915;28;44857;-85
2021/12/02 11:28:36;;;;;;;;;2.75;2.75;;;;;5.81;100.00;100535.09;4937327;28;44817;-85
2021/12/02 11:31:17;;;;;;;;;1.50;1.00;;;;;5.72;100.00;100520.59;4937878;28;45257;-90
2021/12/02 11:33:45;;;;;;;;;2.00;2.00;;;;;5.81;100.00;100533.31;4947206;28;44619;-88
2021/12/02 11:36:22;;;;;;;;;3.00;2.50;;;;;5.62;100.00;100533.38;4944823;28;44638;-89
2021/12/02 11:38:50;;;;;;;;;1.50;0.25;;;;;5.56;100.00;100535.44;4947440;28;44693;-89
2021/12/02 11:41:17;;;;;;;;;1.75;1.75;;;;;5.35;100.00;100534.72;4947581;28;45195;-88